Time;durP1;ratioP1;P1;durP2;ratioP2;P2;SDS_P1;SDS_P2;PMS_P1;PMS_P2;Temp;Humidity;BMP_temperature;BMP_pressure;BME280_temperature;BME280_humidity;BME280_pressure;Samples;Min_cycle;Max_cycle;Signal;HPM_P1;HPM_P2
2023/11/03 06:46:41;;;;;;;5.07;1.30;;;;;;;;;;10548959;27;20113;-84
2023/11/03 06:51:45;;;;;;;9.48;3.53;;;;;;;;;;10545366;28;20039;-83
2023/11/03 06:56:46;;;;;;;4.13;1.20;;;;;;;;;;10555497;22;20475;-83
2023/11/03 07:01:48;;;;;;;4.45;1.10;;;;;;;;;;10482189;28;20036;-82
2023/11/03 07:06:49;;;;;;;5.40;1.38;;;;;;;;;;10485187;28;20033;-82
2023/11/03 07:11:50;;;;;;;4.93;1.60;;;;;;;;;;10463135;28;20204;-82
2023/11/03 07:16:52;;;;;;;7.18;1.83;;;;;;;;;;10460364;28;20061;-82
2023/11/03 07:21:54;;;;;;;5.28;1.45;;;;;;;;;;10472104;28;20040;-82
2023/11/03 07:26:55;;;;;;;6.07;1.17;;;;;;;;;;10498563;28;20021;-82
2023/11/03 07:31:57;;;;;;;3.85;1.30;;;;;;;;;;10498187;28;20116;-83
2023/11/03 07:36:58;;;;;;;5.95;1.27;;;;;;;;;;10485008;28;20426;-83
2023/11/03 07:41:59;;;;;;;3.65;1.00;;;;;;;;;;10454609;28;20032;-83
2023/11/03 07:47:02;;;;;;;4.00;1.58;;;;;;;;;;10459607;28;20035;-82
2023/11/03 07:52:03;;;;;;;2.78;1.00;;;;;;;;;;10463988;28;20028;-82
2023/11/03 07:57:04;;;;;;;4.35;1.10;;;;;;;;;;10464136;28;20040;-83
2023/11/03 08:02:06;;;;;;;;;;;;;;;;;;10457212;28;20129;-83
2023/11/03 08:07:07;;;;;;;3.03;0.90;;;;;;;;;;10450049;28;20309;-83
2023/11/03 08:12:08;;;;;;;;;;;;;;;;;;10449626;28;20025;-83
2023/11/03 08:17:10;;;;;;;4.05;1.20;;;;;;;;;;10458100;28;19909;-82
2023/11/03 08:22:12;;;;;;;3.70;1.13;;;;;;;;;;10429461;28;20020;-84
2023/11/03 08:27:14;;;;;;;6.03;1.48;;;;;;;;;;10430759;28;20109;-82
2023/11/03 08:32:15;;;;;;;3.38;1.20;;;;;;;;;;10430402;28;20401;-83
2023/11/03 08:37:17;;;;;;;;;;;;;;;;;;10430481;28;20021;-84
2023/11/03 08:42:18;;;;;;;4.30;1.55;;;;;;;;;;10426871;28;19972;-83
2023/11/03 08:47:19;;;;;;;;;;;;;;;;;;10426843;28;20128;-83
2023/11/03 08:52:20;;;;;;;4.18;1.33;;;;;;;;;;10424396;28;19913;-83
2023/11/03 08:57:21;;;;;;;5.35;1.30;;;;;;;;;;10427590;28;20037;-86
2023/11/03 09:02:24;;;;;;;5.00;1.70;;;;;;;;;;10429003;28;20124;-86
2023/11/03 09:07:34;;;;;;;3.72;1.17;;;;;;;;;;10425920;28;20029;-86
2023/11/03 09:12:36;;;;;;;5.28;1.83;;;;;;;;;;10430253;28;20101;-86
2023/11/03 09:17:45;;;;;;;4.22;1.48;;;;;;;;;;10428648;28;20136;-86
2023/11/03 09:22:47;;;;;;;5.30;1.60;;;;;;;;;;10431192;28;20030;-85
2023/11/03 09:27:48;;;;;;;5.53;1.65;;;;;;;;;;10426740;28;20029;-85
2023/11/03 09:32:50;;;;;;;4.18;1.30;;;;;;;;;;10432813;28;20074;-85
2023/11/03 09:37:53;;;;;;;;;;;;;;;;;;10430372;28;20021;-87
2023/11/03 09:42:58;;;;;;;5.50;1.48;;;;;;;;;;10425579;28;20335;-86
2023/11/03 09:48:00;;;;;;;5.65;1.63;;;;;;;;;;10430114;28;20049;-85
2023/11/03 09:53:05;;;;;;;3.30;1.20;;;;;;;;;;10434307;28;20528;-85
2023/11/03 09:58:07;;;;;;;4.82;1.60;;;;;;;;;;10427897;28;20036;-85
2023/11/03 10:03:09;;;;;;;5.97;1.45;;;;;;;;;;10425114;28;20029;-86
2023/11/03 10:08:33;;;;;;;7.13;1.60;;;;;;;;;;10421344;28;20427;-86
2023/11/03 10:13:39;;;;;;;4.93;1.58;;;;;;;;;;10420374;28;20033;-85
2023/11/03 10:18:54;;;;;;;3.90;1.63;;;;;;;;;;10425798;28;20049;-86
2023/11/03 10:24:24;;;;;;;4.75;1.67;;;;;;;;;;10423333;28;20029;-86
2023/11/03 10:29:52;;;;;;;6.90;1.58;;;;;;;;;;10403351;28;20036;-86
2023/11/03 10:40:57;;;;;;;6.07;1.85;;;;;;;;;;10428195;28;20025;-86
2023/11/03 10:46:38;;;;;;;4.60;1.70;;;;;;;;;;10416934;28;20022;-86
2023/11/03 10:52:07;;;;;;;7.78;1.70;;;;;;;;;;10421683;28;20053;-84
2023/11/03 10:57:56;;;;;;;6.50;1.52;;;;;;;;;;10416888;28;20620;-86
2023/11/03 11:08:42;;;;;;;5.68;1.98;;;;;;;;;;10417109;28;20025;-87
2023/11/03 11:13:43;;;;;;;5.22;1.73;;;;;;;;;;10382213;28;20128;-86
2023/11/03 11:18:44;;;;;;;;;;;;;;;;;;10415961;28;20025;-87
2023/11/03 11:23:47;;;;;;;8.38;1.70;;;;;;;;;;10415165;28;19924;-87
2023/11/03 11:28:49;;;;;;;6.18;2.10;;;;;;;;;;10415333;28;20025;-86
2023/11/03 11:34:03;;;;;;;7.55;2.28;;;;;;;;;;10427634;28;20037;-86
2023/11/03 11:39:08;;;;;;;6.75;2.03;;;;;;;;;;10423261;28;20029;-86
2023/11/03 11:44:10;;;;;;;5.93;1.58;;;;;;;;;;10422811;28;20026;-87
2023/11/03 11:49:14;;;;;;;5.82;1.92;;;;;;;;;;10426048;28;20088;-87
2023/11/03 11:54:16;;;;;;;8.02;1.90;;;;;;;;;;10438805;28;20064;-86
2023/11/03 11:59:19;;;;;;;8.25;2.90;;;;;;;;;;10454754;28;20144;-86
2023/11/03 12:04:23;;;;;;;7.43;1.55;;;;;;;;;;10432754;28;20596;-86
2023/11/03 12:09:24;;;;;;;6.47;1.60;;;;;;;;;;10428104;28;20033;-86
2023/11/03 12:14:26;;;;;;;5.78;1.83;;;;;;;;;;10428779;28;20026;-86
2023/11/03 12:19:27;;;;;;;7.13;1.77;;;;;;;;;;10428772;28;20097;-86
2023/11/03 12:24:28;;;;;;;;;;;;;;;;;;10425993;28;20057;-85
2023/11/03 12:29:30;;;;;;;5.85;1.90;;;;;;;;;;10425365;28;19948;-87
2023/11/03 12:34:31;;;;;;;7.95;1.92;;;;;;;;;;10424194;28;20034;-87
2023/11/03 12:39:46;;;;;;;9.00;1.85;;;;;;;;;;10426813;28;20465;-86
2023/11/03 12:44:54;;;;;;;5.43;1.98;;;;;;;;;;10427940;28;20067;-85
2023/11/03 12:50:08;;;;;;;6.97;1.98;;;;;;;;;;10425794;28;20505;-87
2023/11/03 12:55:10;;;;;;;6.95;1.92;;;;;;;;;;10426869;28;20120;-86
2023/11/03 13:00:15;;;;;;;6.45;1.85;;;;;;;;;;10473018;23;20061;-81
2023/11/03 13:05:16;;;;;;;5.88;2.10;;;;;;;;;;10437905;28;20030;-82
2023/11/03 13:10:17;;;;;;;7.75;2.22;;;;;;;;;;10426987;28;20063;-82
2023/11/03 13:15:19;;;;;;;;;;;;;;;;;;10427618;28;20059;-82
2023/11/03 13:20:20;;;;;;;6.10;1.60;;;;;;;;;;10424325;28;20334;-83
2023/11/03 13:25:21;;;;;;;5.53;1.95;;;;;;;;;;10424868;28;20045;-82
2023/11/03 13:30:22;;;;;;;;;;;;;;;;;;10425744;28;20085;-82
2023/11/03 13:35:27;;;;;;;9.05;2.42;;;;;;;;;;10427025;28;19909;-83
2023/11/03 13:40:28;;;;;;;7.72;1.75;;;;;;;;;;10426803;28;20025;-82
2023/11/03 13:45:30;;;;;;;5.57;1.92;;;;;;;;;;10427934;28;20039;-81
2023/11/03 13:50:31;;;;;;;5.07;1.92;;;;;;;;;;10423105;28;20025;-81
2023/11/03 13:55:33;;;;;;;;;;;;;;;;;;10423127;28;20039;-83
2023/11/03 14:00:35;;;;;;;4.78;1.80;;;;;;;;;;10432092;28;19943;-81
2023/11/03 14:05:38;;;;;;;6.28;1.73;;;;;;;;;;10427123;28;20097;-82
2023/11/03 14:10:39;;;;;;;6.60;1.70;;;;;;;;;;10424263;28;20026;-82
2023/11/03 14:15:41;;;;;;;;;;;;;;;;;;10429770;28;20100;-81
2023/11/03 14:20:42;;;;;;;6.63;1.92;;;;;;;;;;10429402;28;19912;-82
2023/11/03 14:25:43;;;;;;;7.30;2.60;;;;;;;;;;10426574;28;20057;-82
2023/11/03 14:30:46;;;;;;;6.65;2.17;;;;;;;;;;10425933;28;20090;-83
2023/11/03 14:35:47;;;;;;;4.88;1.60;;;;;;;;;;10426495;28;20029;-82
2023/11/03 14:40:48;;;;;;;;;;;;;;;;;;10427689;28;20119;-82
2023/11/03 14:45:49;;;;;;;4.90;1.70;;;;;;;;;;10432339;28;19959;-82
2023/11/03 14:50:50;;;;;;;;;;;;;;;;;;10430727;28;20049;-83
2023/11/03 14:55:52;;;;;;;3.75;1.42;;;;;;;;;;10430818;28;19909;-82
2023/11/03 15:00:53;;;;;;;5.80;1.52;;;;;;;;;;10433488;28;20029;-83
2023/11/03 15:05:54;;;;;;;4.93;1.52;;;;;;;;;;10445545;28;20029;-83
2023/11/03 15:10:56;;;;;;;4.25;1.27;;;;;;;;;;10449645;28;20029;-82
2023/11/03 15:15:57;;;;;;;4.97;1.42;;;;;;;;;;10458182;28;20027;-82
2023/11/03 15:20:58;;;;;;;;;;;;;;;;;;10472489;28;20056;-82
2023/11/03 15:25:59;;;;;;;7.75;1.45;;;;;;;;;;10453329;28;19941;-82
2023/11/03 15:31:04;;;;;;;4.68;1.33;;;;;;;;;;10444890;28;20063;-82
2023/11/03 15:36:06;;;;;;;4.25;1.58;;;;;;;;;;10442655;28;20061;-83
2023/11/03 15:41:07;;;;;;;6.95;2.20;;;;;;;;;;10446330;28;20025;-82
2023/11/03 15:46:08;;;;;;;;;;;;;;;;;;10460323;28;20374;-82
2023/11/03 15:51:10;;;;;;;5.75;1.58;;;;;;;;;;10448281;28;19905;-82
2023/11/03 15:56:14;;;;;;;4.63;1.25;;;;;;;;;;10437913;28;20049;-83
2023/11/03 16:01:15;;;;;;;4.10;1.38;;;;;;;;;;10430785;28;20033;-83
2023/11/03 16:06:15;;;;;;;;;;;;;;;;;;10431293;28;20030;-83
2023/11/03 16:11:17;;;;;;;3.95;1.45;;;;;;;;;;10447057;28;20000;-82
2023/11/03 16:16:18;;;;;;;5.90;1.67;;;;;;;;;;10427634;28;20053;-83
2023/11/03 16:21:19;;;;;;;;;;;;;;;;;;10430516;28;20024;-83
2023/11/03 16:26:20;;;;;;;6.38;1.77;;;;;;;;;;10431833;28;19912;-84
2023/11/03 16:31:21;;;;;;;6.10;1.95;;;;;;;;;;10427460;28;20021;-84
2023/11/03 16:36:22;;;;;;;6.70;3.20;;;;;;;;;;10428015;28;20156;-84
2023/11/03 16:41:25;;;;;;;;;;;;;;;;;;10426973;28;20097;-84
2023/11/03 16:46:26;;;;;;;5.28;1.40;;;;;;;;;;10429775;28;20091;-84
2023/11/03 16:51:27;;;;;;;;;;;;;;;;;;10428685;28;20464;-84
2023/11/03 16:56:28;;;;;;;5.30;1.95;;;;;;;;;;10427835;28;20274;-84
2023/11/03 17:01:32;;;;;;;4.30;1.48;;;;;;;;;;10431453;28;20084;-84
2023/11/03 17:06:33;;;;;;;5.03;1.75;;;;;;;;;;10433918;28;20029;-84
2023/11/03 17:11:34;;;;;;;3.55;1.30;;;;;;;;;;10431563;28;20485;-84
2023/11/03 17:16:35;;;;;;;;;;;;;;;;;;10449217;28;20030;-83
2023/11/03 17:21:36;;;;;;;6.10;1.60;;;;;;;;;;10434119;28;19995;-83
2023/11/03 17:26:38;;;;;;;4.72;1.60;;;;;;;;;;10434139;28;20029;-82
2023/11/03 17:31:39;;;;;;;5.95;1.52;;;;;;;;;;10432046;28;20021;-81
2023/11/03 17:36:40;;;;;;;;;;;;;;;;;;10426078;28;20086;-82
2023/11/03 17:41:41;;;;;;;3.72;1.45;;;;;;;;;;10423923;28;20406;-81
2023/11/03 17:46:42;;;;;;;5.07;1.63;;;;;;;;;;10421844;28;20405;-81
2023/11/03 17:51:44;;;;;;;6.13;1.70;;;;;;;;;;10420971;28;20032;-82
2023/11/03 17:56:47;;;;;;;4.20;1.40;;;;;;;;;;10422405;28;20029;-82
2023/11/03 18:01:48;;;;;;;4.10;1.35;;;;;;;;;;10422607;28;20026;-82
2023/11/03 18:06:49;;;;;;;;;;;;;;;;;;10425187;28;20100;-83
2023/11/03 18:11:52;;;;;;;4.97;1.80;;;;;;;;;;10431907;28;20007;-85
2023/11/03 18:16:53;;;;;;;5.97;1.70;;;;;;;;;;10443341;28;20021;-83
2023/11/03 18:21:54;;;;;;;;;;;;;;;;;;10460219;28;20124;-84
2023/11/03 18:26:55;;;;;;;5.13;1.60;;;;;;;;;;10425178;28;19909;-84
2023/11/03 18:31:56;;;;;;;;;;;;;;;;;;10423975;28;20116;-84
2023/11/03 18:36:57;;;;;;;4.50;1.98;;;;;;;;;;10423272;28;19911;-84
2023/11/03 18:41:58;;;;;;;;;;;;;;;;;;10423027;28;20025;-83
2023/11/03 18:46:59;;;;;;;4.70;1.70;;;;;;;;;;10422138;28;19908;-83
2023/11/03 18:52:00;;;;;;;;;;;;;;;;;;10423993;28;20132;-83
2023/11/03 18:57:01;;;;;;;5.07;1.80;;;;;;;;;;10448421;22;19935;-84
2023/11/03 19:02:02;;;;;;;2.88;1.25;;;;;;;;;;10441200;28;20042;-85
2023/11/03 19:07:06;;;;;;;4.95;1.42;;;;;;;;;;10440545;28;20116;-84
2023/11/03 19:12:09;;;;;;;4.03;1.70;;;;;;;;;;10424435;28;20021;-85
2023/11/03 19:17:10;;;;;;;5.85;2.00;;;;;;;;;;10426075;28;20049;-84
2023/11/03 19:22:13;;;;;;;4.65;1.60;;;;;;;;;;10424283;28;20021;-84
2023/11/03 19:27:15;;;;;;;4.20;1.60;;;;;;;;;;10424570;28;20056;-84
2023/11/03 19:32:17;;;;;;;4.78;1.60;;;;;;;;;;10428577;28;20029;-85
2023/11/03 19:37:21;;;;;;;4.90;1.60;;;;;;;;;;10426078;28;20026;-85
2023/11/03 19:42:22;;;;;;;4.03;1.25;;;;;;;;;;10425706;28;20455;-85
2023/11/03 19:47:23;;;;;;;;;;;;;;;;;;10425348;28;20032;-84
2023/11/03 19:52:24;;;;;;;4.45;1.35;;;;;;;;;;10428359;28;19916;-84
2023/11/03 19:57:25;;;;;;;4.93;1.42;;;;;;;;;;10430071;28;20103;-83
2023/11/03 20:02:26;;;;;;;;;;;;;;;;;;10431303;28;20082;-84
2023/11/03 20:07:27;;;;;;;5.07;1.77;;;;;;;;;;10432565;28;19927;-84
